Time;durP1;ratioP1;P1;durP2;ratioP2;P2;SDS_P1;SDS_P2;PMS_P1;PMS_P2;Temp;Humidity;BMP_temperature;BMP_pressure;BME280_temperature;BME280_humidity;BME280_pressure;Samples;Min_cycle;Max_cycle;Signal;HPM_P1;HPM_P2
2022/12/30 00:01:56;;;;;;;;;;;;;;;;;;6147031;23;19970;-92
2022/12/30 00:04:25;;;;;;;;;;;;;;;;;;6145179;23;19920;-92
2022/12/30 00:06:51;;;;;;;;;;;;;;;;;;6120691;23;20245;-91
2022/12/30 00:09:26;;;;;;;;;;;;;;;;;;6123247;23;19994;-92
2022/12/30 00:11:55;;;;;;;;;;;;;;;;;;6121287;23;19916;-92
2022/12/30 00:34:01;;;;;;;;;;;;;;;;;;6168516;23;20358;-91
2022/12/30 00:36:29;;;;;;;;;;;;;;;;;;6121020;23;19916;-92
2022/12/30 00:38:58;;;;;;;;;;;;;;;;;;6118145;23;19952;-92
2022/12/30 00:44:14;;;;;;;;;;;;;;;;;;6167237;23;19925;-91
2022/12/30 00:47:01;;;;;;;;;;;;;;;;;;6119431;23;19920;-92
2022/12/30 00:57:58;;;;;;;;;;;;;;;;;;6167926;23;19916;-93
2022/12/30 01:00:30;;;;;;;;;;;;;;;;;;6120271;23;19921;-93
2022/12/30 01:02:57;;;;;;;;;;;;;;;;;;6118506;23;19967;-93
2022/12/30 01:05:25;;;;;;;;;;;;;;;;;;6120421;23;19928;-93
2022/12/30 01:08:12;;;;;;;;;;;;;;;;;;6141899;23;19974;-91
2022/12/30 01:10:40;;;;;;;;;;;;;;;;;;6168568;23;19920;-92
2022/12/30 01:13:09;;;;;;;;;;;;;;;;;;6117104;23;20306;-91
2022/12/30 01:15:35;;;;;;;;;;;;;;;;;;6121159;23;20590;-92
2022/12/30 01:18:12;;;;;;;;;;;;;;;;;;6119490;23;20359;-92
2022/12/30 01:20:46;;;;;;;;;;;;;;;;;;6119583;23;19920;-93
2022/12/30 01:23:15;;;;;;;;;;;;;;;;;;6119317;23;19921;-92
2022/12/30 01:25:41;;;;;;;;;;;;;;;;;;6118168;23;19921;-92
2022/12/30 01:28:09;;;;;;;;;;;;;;;;;;6117883;23;20620;-93
2022/12/30 01:30:48;;;;;;;;;;;;;;;;;;;;;
2022/12/30 01:33:17;;;;;;;;;;;;;;;;;;6168212;23;19923;-92
2022/12/30 01:35:52;;;;;;;;;;;;;;;;;;6119728;23;19931;-94
2022/12/30 01:38:21;;;;;;;;;;;;;;;;;;6118161;23;19999;-92
2022/12/30 01:40:53;;;;;;;;;;;;;;;;;;6118417;23;19920;-94
2022/12/30 01:43:27;;;;;;;;;;;;;;;;;;6120091;23;19996;-94
2022/12/30 01:46:01;;;;;;;;;;;;;;;;;;6118645;23;19925;-93
2022/12/30 01:48:30;;;;;;;;;;;;;;;;;;6118131;23;19975;-93
2022/12/30 01:50:59;;;;;;;;;;;;;;;;;;6117733;23;19959;-91
2022/12/30 01:53:30;;;;;;;;;;;;;;;;;;6120100;23;19940;-92
2022/12/30 01:56:01;;;;;;;;;;;;;;;;;;6118172;23;19921;-91
2022/12/30 01:58:40;;;;;;;;;;;;;;;;;;;;;
2022/12/30 02:01:06;;;;;;;;;;;;;;;;;;6166218;23;19986;-92
2022/12/30 02:03:35;;;;;;;;;;;;;;;;;;6117890;23;19971;-91
2022/12/30 02:06:07;;;;;;;;;;;;;;;;;;6117578;23;19920;-93
2022/12/30 02:08:36;;;;;;;;;;;;;;;;;;6118117;23;19927;-92
2022/12/30 02:11:05;;;;;;;;;;;;;;;;;;6117815;23;19920;-92
2022/12/30 02:13:39;;;;;;;;;;;;;;;;;;6118254;23;19995;-93
2022/12/30 02:16:11;;;;;;;;;;;;;;;;;;6117140;23;20356;-93
2022/12/30 02:18:40;;;;;;;;;;;;;;;;;;6117934;23;19954;-92
2022/12/30 02:21:08;;;;;;;;;;;;;;;;;;6115282;23;19920;-92
2022/12/30 02:23:34;;;;;;;;;;;;;;;;;;6118587;23;19924;-93
2022/12/30 02:26:00;;;;;;;;;;;;;;;;;;6139214;23;19955;-92
2022/12/30 02:28:29;;;;;;;;;;;;;;;;;;6117555;23;20033;-92
2022/12/30 02:30:58;;;;;;;;;;;;;;;;;;6116397;23;19948;-92
2022/12/30 02:33:27;;;;;;;;;;;;;;;;;;6118892;23;19983;-93
2022/12/30 02:36:05;;;;;;;;;;;;;;;;;;6117737;23;19989;-93
2022/12/30 02:38:40;;;;;;;;;;;;;;;;;;6119863;23;20250;-93
2022/12/30 02:46:52;;;;;;;;;;;;;;;;;;6168270;23;20182;-93
2022/12/30 02:49:21;;;;;;;;;;;;;;;;;;6121769;23;19931;-92
2022/12/30 03:04:29;;;;;;;;;;;;;;;;;;6146747;23;19920;-92
2022/12/30 03:16:14;;;;;;;;;;;;;;;;;;6155186;23;20065;-92
2022/12/30 03:19:17;;;;;;;;;;;;;;;;;;6144870;23;20388;-92
2022/12/30 03:37:36;;;;;;;;;;;;;;;;;;;;;
2022/12/30 03:59:10;;;;;;;;;;;;;;;;;;6092170;23;20458;-94
2022/12/30 04:18:27;;;;;;;;;;;;;;;;;;5980525;24;20285;-94
2022/12/30 04:27:56;;;;;;;;;;;;;;;;;;5920579;24;20377;-92
2022/12/30 04:30:52;;;;;;;;;;;;;;;;;;5936349;24;19973;-92
2022/12/30 04:33:30;;;;;;;;;;;;;;;;;;5916305;24;19927;-92
2022/12/30 04:36:08;;;;;;;;;;;;;;;;;;5858468;24;19928;-94
2022/12/30 04:41:26;;;;;;;;;;;;;;;;;;5995709;23;19922;-93
2022/12/30 04:43:54;;;;;;;;;;;;;;;;;;6063335;23;19999;-94
2022/12/30 04:46:23;;;;;;;;;;;;;;;;;;6064538;23;20325;-92
2022/12/30 04:51:38;;;;;;;;;;;;;;;;;;6089529;23;20376;-94
2022/12/30 04:56:50;;;;;;;;;;;;;;;;;;6088286;23;19928;-92
2022/12/30 04:59:27;;;;;;;;;;;;;;;;;;6066649;23;19917;-92
2022/12/30 05:01:53;;;;;;;;;;;;;;;;;;6061813;23;19921;-94
2022/12/30 05:04:19;;;;;;;;;;;;;;;;;;6090236;23;19927;-93
2022/12/30 05:06:48;;;;;;;;;;;;;;;;;;6119140;23;19916;-93
2022/12/30 05:09:26;;;;;;;;;;;;;;;;;;6120664;23;20266;-93
2022/12/30 05:12:01;;;;;;;;;;;;;;;;;;6117394;23;19920;-93
2022/12/30 05:14:34;;;;;;;;;;;;;;;;;;6144525;23;20530;-94
2022/12/30 05:17:00;;;;;;;;;;;;;;;;;;6118251;23;19921;-93
2022/12/30 05:19:32;;;;;;;;;;;;;;;;;;6126879;23;20315;-93
2022/12/30 05:21:58;;;;;;;;;;;;;;;;;;6117839;23;20352;-93
2022/12/30 05:27:09;;;;;;;;;;;;;;;;;;6167768;23;20034;-94
2022/12/30 05:29:38;;;;;;;;;;;;;;;;;;6120447;23;19921;-93
2022/12/30 05:32:28;;;;;;;;;;;;;;;;;;6118544;23;20425;-94
2022/12/30 05:35:05;;;;;;;;;;;;;;;;;;6141960;23;19952;-92
2022/12/30 05:37:31;;;;;;;;;;;;;;;;;;6120102;23;20422;-92
2022/12/30 05:40:00;;;;;;;;;;;;;;;;;;6115927;23;20023;-92
2022/12/30 05:42:29;;;;;;;;;;;;;;;;;;6117495;23;19920;-95
2022/12/30 05:44:56;;;;;;;;;;;;;;;;;;6115754;23;19917;-94
2022/12/30 05:47:43;;;;;;;;;;;;;;;;;;6117015;23;19931;-92
2022/12/30 05:50:18;;;;;;;;;;;;;;;;;;6139221;23;19932;-93
2022/12/30 05:52:47;;;;;;;;;;;;;;;;;;6118165;23;20333;-94
2022/12/30 05:55:23;;;;;;;;;;;;;;;;;;6117988;23;20342;-93
2022/12/30 05:57:57;;;;;;;;;;;;;;;;;;6117274;23;19920;-93
2022/12/30 06:00:26;;;;;;;;;;;;;;;;;;6118326;23;19927;-93
2022/12/30 06:02:52;;;;;;;;;;;;;;;;;;6115842;23;19967;-93
2022/12/30 06:05:21;;;;;;;;;;;;;;;;;;6117637;23;19927;-92
2022/12/30 06:07:50;;;;;;;;;;;;;;;;;;6118913;23;19917;-93
2022/12/30 06:10:16;;;;;;;;;;;;;;;;;;6117412;23;20290;-93
2022/12/30 06:15:31;;;;;;;;;;;;;;;;;;6143103;23;19975;-94
2022/12/30 06:20:39;;;;;;;;;;;;;;;;;;6174051;22;19993;-91
2022/12/30 06:23:05;;;;;;;;;;;;;;;;;;6113167;23;19920;-91
2022/12/30 06:25:31;;;;;;;;;;;;;;;;;;6116918;23;19920;-91
2022/12/30 06:27:57;;;;;;;;;;;;;;;;;;6163175;23;19947;-92
2022/12/30 06:30:23;;;;;;;;;;;;;;;;;;6164861;23;20367;-90
2022/12/30 06:32:49;;;;;;;;;;;;;;;;;;6165319;23;20058;-92
2022/12/30 06:35:15;;;;;;;;;;;;;;;;;;6116222;23;19924;-91
2022/12/30 06:37:40;;;;;;;;;;;;;;;;;;6167342;23;19975;-91
2022/12/30 06:40:06;;;;;;;;;;;;;;;;;;6162615;23;20369;-91
2022/12/30 06:42:32;;;;;;;;;;;;;;;;;;6113340;23;19924;-91
2022/12/30 06:44:58;;;;;;;;;;;;;;;;;;6114542;23;20280;-91
2022/12/30 06:47:25;;;;;;;;;;;;;;;;;;6166501;23;19950;-90
2022/12/30 06:49:51;;;;;;;;;;;;;;;;;;6113558;23;19924;-91
2022/12/30 06:52:16;;;;;;;;;;;;;;;;;;6115877;23;19920;-91
2022/12/30 06:54:42;;;;;;;;;;;;;;;;;;6114552;23;19920;-91
2022/12/30 06:57:09;;;;;;;;;;;;;;;;;;6162928;23;20344;-91
2022/12/30 06:59:34;;;;;;;;;;;;;;;;;;6117647;23;19966;-91
2022/12/30 07:02:00;;;;;;;;;;;;;;;;;;6112876;23;20323;-91
2022/12/30 07:04:26;;;;;;;;;;;;;;;;;;6165235;23;19920;-91
2022/12/30 07:06:52;;;;;;;;;;;;;;;;;;6162507;23;19916;-91
2022/12/30 07:09:18;;;;;;;;;;;;;;;;;;6141113;23;19920;-91
2022/12/30 07:11:44;;;;;;;;;;;;;;;;;;6115253;23;20403;-91
2022/12/30 07:14:10;;;;;;;;;;;;;;;;;;6114444;23;19920;-91
2022/12/30 07:16:36;;;;;;;;;;;;;;;;;;6116649;23;19919;-92
2022/12/30 07:19:02;;;;;;;;;;;;;;;;;;6160946;23;19924;-91
2022/12/30 07:21:28;;;;;;;;;;;;;;;;;;6139918;23;19926;-91
2022/12/30 07:23:54;;;;;;;;;;;;;;;;;;6162554;23;19916;-90
2022/12/30 07:26:20;;;;;;;;;;;;;;;;;;6139889;23;19921;-92
2022/12/30 07:28:46;;;;;;;;;;;;;;;;;;6165022;23;19924;-92
2022/12/30 07:31:15;;;;;;;;;;;;;;;;;;6140422;23;19970;-91
2022/12/30 07:33:41;;;;;;;;;;;;;;;;;;6116781;23;19916;-92
2022/12/30 07:36:07;;;;;;;;;;;;;;;;;;6164001;23;20298;-92
2022/12/30 07:38:35;;;;;;;;;;;;;;;;;;6167781;23;19946;-91
2022/12/30 07:41:01;;;;;;;;;;;;;;;;;;6116609;23;19920;-91
2022/12/30 07:43:27;;;;;;;;;;;;;;;;;;6165842;23;20265;-91
2022/12/30 07:45:53;;;;;;;;;;;;;;;;;;6116162;23;19951;-91
2022/12/30 07:48:19;;;;;;;;;;;;;;;;;;6117212;23;20334;-92
2022/12/30 07:50:45;;;;;;;;;;;;;;;;;;6118646;23;19916;-91
2022/12/30 07:53:11;;;;;;;;;;;;;;;;;;6117361;23;19916;-92
2022/12/30 07:55:37;;;;;;;;;;;;;;;;;;6118220;23;19917;-91
2022/12/30 07:58:03;;;;;;;;;;;;;;;;;;6164475;23;19951;-92
2022/12/30 08:00:29;;;;;;;;;;;;;;;;;;6115990;23;19927;-92
2022/12/30 08:02:55;;;;;;;;;;;;;;;;;;6116475;23;20348;-92
2022/12/30 08:05:21;;;;;;;;;;;;;;;;;;6118816;23;19931;-92
2022/12/30 08:07:49;;;;;;;;;;;;;;;;;;6116467;23;19995;-91
2022/12/30 08:10:16;;;;;;;;;;;;;;;;;;6116982;23;19967;-92
2022/12/30 08:12:41;;;;;;;;;;;;;;;;;;6166477;23;19920;-92
2022/12/30 08:15:07;;;;;;;;;;;;;;;;;;6140202;23;19924;-89
2022/12/30 08:17:33;;;;;;;;;;;;;;;;;;6166655;23;19962;-88
2022/12/30 08:19:59;;;;;;;;;;;;;;;;;;6162910;23;20671;-88
2022/12/30 08:22:28;;;;;;;;;;;;;;;;;;6116881;23;19960;-88
2022/12/30 08:24:54;;;;;;;;;;;;;;;;;;6112471;23;20296;-89
2022/12/30 08:27:20;;;;;;;;;;;;;;;;;;6166442;23;19920;-89
2022/12/30 08:29:49;;;;;;;;;;;;;;;;;;6118357;23;19975;-88
2022/12/30 08:32:15;;;;;;;;;;;;;;;;;;6118015;23;19974;-89
2022/12/30 08:34:41;;;;;;;;;;;;;;;;;;6143237;23;19988;-88
2022/12/30 08:37:07;;;;;;;;;;;;;;;;;;6114483;23;20679;-89
2022/12/30 08:39:33;;;;;;;;;;;;;;;;;;6142660;23;20071;-89
2022/12/30 08:41:59;;;;;;;;;;;;;;;;;;6114010;23;19920;-89
2022/12/30 08:44:25;;;;;;;;;;;;;;;;;;6119526;23;19916;-88
2022/12/30 08:46:51;;;;;;;;;;;;;;;;;;6164525;23;20405;-89
2022/12/30 08:49:17;;;;;;;;;;;;;;;;;;6117498;23;20190;-89
2022/12/30 08:51:43;;;;;;;;;;;;;;;;;;6165577;23;19920;-89
2022/12/30 08:54:09;;;;;;;;;;;;;;;;;;6163892;23;19927;-89
2022/12/30 08:56:35;;;;;;;;;;;;;;;;;;6117834;23;19987;-89
2022/12/30 08:59:01;;;;;;;;;;;;;;;;;;6115561;23;19959;-89
2022/12/30 09:01:27;;;;;;;;;;;;;;;;;;6169842;23;19924;-89
2022/12/30 09:03:53;;;;;;;;;;;;;;;;;;6117040;23;20336;-89
2022/12/30 09:06:19;;;;;;;;;;;;;;;;;;6169135;23;19916;-89
2022/12/30 09:08:45;;;;;;;;;;;;;;;;;;6141443;23;19943;-88
2022/12/30 09:11:11;;;;;;;;;;;;;;;;;;6162436;23;20669;-89
2022/12/30 09:13:37;;;;;;;;;;;;;;;;;;6118815;23;19948;-88
2022/12/30 09:16:03;;;;;;;;;;;;;;;;;;6166523;23;19978;-89
2022/12/30 09:18:28;;;;;;;;;;;;;;;;;;6168019;23;20515;-89
2022/12/30 09:20:54;;;;;;;;;;;;;;;;;;6116643;23;19921;-89
2022/12/30 09:23:20;;;;;;;;;;;;;;;;;;6168061;23;19931;-88
2022/12/30 09:25:50;;;;;;;;;;;;;;;;;;6119852;23;20250;-90
2022/12/30 09:28:16;;;;;;;;;;;;;;;;;;6143052;23;20348;-89
2022/12/30 09:30:44;;;;;;;;;;;;;;;;;;6163869;23;19920;-89
2022/12/30 09:33:10;;;;;;;;;;;;;;;;;;6135084;23;19920;-88
2022/12/30 09:35:36;;;;;;;;;;;;;;;;;;6116462;23;19971;-88
2022/12/30 09:38:02;;;;;;;;;;;;;;;;;;6162747;23;19924;-89
2022/12/30 09:40:28;;;;;;;;;;;;;;;;;;6115815;23;19977;-89
2022/12/30 09:45:56;;;;;;;;;;;;;;;;;;5992496;23;19922;-89
2022/12/30 09:48:22;;;;;;;;;;;;;;;;;;6084920;23;20002;-89
2022/12/30 09:50:48;;;;;;;;;;;;;;;;;;6163159;23;19956;-89
2022/12/30 09:53:14;;;;;;;;;;;;;;;;;;6164993;23;19921;-89
2022/12/30 09:55:40;;;;;;;;;;;;;;;;;;6116427;23;19966;-88
2022/12/30 09:58:06;;;;;;;;;;;;;;;;;;6136609;23;19939;-88
2022/12/30 10:00:32;;;;;;;;;;;;;;;;;;6166296;23;19927;-89
2022/12/30 10:02:58;;;;;;;;;;;;;;;;;;6163189;23;19947;-89
2022/12/30 10:05:24;;;;;;;;;;;;;;;;;;6116581;23;20333;-89
2022/12/30 10:07:50;;;;;;;;;;;;;;;;;;6158077;23;19927;-89
2022/12/30 10:10:16;;;;;;;;;;;;;;;;;;6115503;23;20420;-90
2022/12/30 10:12:42;;;;;;;;;;;;;;;;;;6164297;23;19926;-90
2022/12/30 10:15:08;;;;;;;;;;;;;;;;;;6116320;23;20825;-91
2022/12/30 10:17:34;;;;;;;;;;;;;;;;;;6118768;23;19927;-92
2022/12/30 10:20:00;;;;;;;;;;;;;;;;;;6117564;23;19928;-91
2022/12/30 10:22:26;;;;;;;;;;;;;;;;;;6115675;23;19921;-91
2022/12/30 10:24:52;;;;;;;;;;;;;;;;;;6164487;23;19924;-92
2022/12/30 10:27:18;;;;;;;;;;;;;;;;;;6168274;23;19978;-90
2022/12/30 10:29:44;;;;;;;;;;;;;;;;;;6141208;23;19924;-92
2022/12/30 10:32:10;;;;;;;;;;;;;;;;;;6117272;23;19920;-91
2022/12/30 10:34:36;;;;;;;;;;;;;;;;;;6166008;23;19960;-91
2022/12/30 10:40:37;;;;;;;;;;;;;;;;;;;;;
2022/12/30 10:50:08;;;;;;;;;;;;;;;;;;;;;
2022/12/30 10:59:19;;;;;;;;;;;;;;;;;;5970702;24;20438;-91
2022/12/30 11:02:31;;;;;;;;;;;;;;;;;;5953721;24;19923;-92
2022/12/30 11:05:01;;;;;;;;;;;;;;;;;;5901034;24;19923;-91
2022/12/30 11:44:49;;;;;;;;;;;;;;;;;;;;;
2022/12/30 12:03:00;;;;;;;;;;;;;;;;;;;;;
2022/12/30 12:09:01;;;;;;;;;;;;;;;;;;5763963;24;19933;-89
2022/12/30 12:11:45;;;;;;;;;;;;;;;;;;5757432;24;19947;-88
2022/12/30 12:14:40;;;;;;;;;;;;;;;;;;;;;
2022/12/30 12:23:34;;;;;;;;;;;;;;;;;;;;;
2022/12/30 12:29:33;;;;;;;;;;;;;;;;;;5864442;24;21064;-88
2022/12/30 12:32:48;;;;;;;;;;;;;;;;;;;;;
2022/12/30 12:44:47;;;;;;;;;;;;;;;;;;5945934;24;20049;-88
2022/12/30 13:03:22;;;;;;;;;;;;;;;;;;;;;
2022/12/30 13:15:58;;;;;;;;;;;;;;;;;;;;;
2022/12/30 13:22:11;;;;;;;;;;;;;;;;;;5898723;24;20343;-89
2022/12/30 13:25:08;;;;;;;;;;;;;;;;;;5905806;24;20261;-88
2022/12/30 13:27:33;;;;;;;;;;;;;;;;;;5944734;23;19950;-88
2022/12/30 13:29:59;;;;;;;;;;;;;;;;;;6019389;23;20024;-88
2022/12/30 13:32:25;;;;;;;;;;;;;;;;;;6021194;23;20359;-88
2022/12/30 13:35:04;;;;;;;;;;;;;;;;;;6021751;23;20299;-88
2022/12/30 13:37:58;;;;;;;;;;;;;;;;;;5978119;23;19928;-88
2022/12/30 13:40:24;;;;;;;;;;;;;;;;;;5998486;23;19921;-88
2022/12/30 13:42:50;;;;;;;;;;;;;;;;;;5996172;23;20343;-87
2022/12/30 13:45:16;;;;;;;;;;;;;;;;;;6023190;23;19926;-88
2022/12/30 13:47:42;;;;;;;;;;;;;;;;;;6023374;23;19932;-88
2022/12/30 13:50:08;;;;;;;;;;;;;;;;;;6060197;23;20800;-88
2022/12/30 13:55:32;;;;;;;;;;;;;;;;;;6103593;23;19927;-88
2022/12/30 13:57:58;;;;;;;;;;;;;;;;;;6101849;23;19920;-89
2022/12/30 14:00:24;;;;;;;;;;;;;;;;;;6139435;23;19921;-88
2022/12/30 14:02:50;;;;;;;;;;;;;;;;;;6135130;23;20598;-88
2022/12/30 14:05:16;;;;;;;;;;;;;;;;;;6136633;23;19916;-88
2022/12/30 14:07:42;;;;;;;;;;;;;;;;;;6135606;23;20326;-88
2022/12/30 14:10:08;;;;;;;;;;;;;;;;;;6083808;23;19924;-89
2022/12/30 14:12:37;;;;;;;;;;;;;;;;;;6135093;23;19952;-88
2022/12/30 14:15:03;;;;;;;;;;;;;;;;;;6089211;23;19920;-88
2022/12/30 14:17:29;;;;;;;;;;;;;;;;;;6140865;23;19920;-88
2022/12/30 14:19:55;;;;;;;;;;;;;;;;;;6140459;23;19916;-88
2022/12/30 14:22:21;;;;;;;;;;;;;;;;;;6186965;23;19924;-88
2022/12/30 14:24:47;;;;;;;;;;;;;;;;;;6146305;23;19924;-88
2022/12/30 14:27:13;;;;;;;;;;;;;;;;;;6146513;23;19927;-88
2022/12/30 14:29:39;;;;;;;;;;;;;;;;;;6146309;23;20343;-89
2022/12/30 14:32:05;;;;;;;;;;;;;;;;;;6144599;23;19970;-88
2022/12/30 14:34:31;;;;;;;;;;;;;;;;;;6147961;23;19924;-89
2022/12/30 14:36:58;;;;;;;;;;;;;;;;;;6169266;23;19928;-89
2022/12/30 14:39:24;;;;;;;;;;;;;;;;;;6148878;23;19995;-88
2022/12/30 14:41:50;;;;;;;;;;;;;;;;;;6193302;23;19958;-88
2022/12/30 14:44:16;;;;;;;;;;;;;;;;;;6145516;23;19928;-88
2022/12/30 14:46:47;;;;;;;;;;;;;;;;;;6145086;23;19916;-89
2022/12/30 14:49:20;;;;;;;;;;;;;;;;;;6142356;23;19920;-90
2022/12/30 14:51:49;;;;;;;;;;;;;;;;;;6108578;23;20302;-89
2022/12/30 14:54:36;;;;;;;;;;;;;;;;;;6112617;23;19988;-89
2022/12/30 14:57:01;;;;;;;;;;;;;;;;;;6077014;23;20440;-89
2022/12/30 15:05:18;;;;;;;;;;;;;;;;;;6061073;23;20335;-88
2022/12/30 15:10:33;;;;;;;;;;;;;;;;;;6079811;23;20028;-89
2022/12/30 15:16:32;;;;;;;;;;;;;;;;;;;;;
2022/12/30 15:19:24;;;;;;;;;;;;;;;;;;5974638;24;20383;-90
2022/12/30 15:25:24;;;;;;;;;;;;;;;;;;6170465;23;19924;-89
2022/12/30 16:11:46;;;;;;;;;;;;;;;;;;6172327;23;19986;-92
2022/12/30 16:14:12;;;;;;;;;;;;;;;;;;6188331;23;20329;-92
2022/12/30 16:16:38;;;;;;;;;;;;;;;;;;6141754;23;19927;-92
2022/12/30 16:19:04;;;;;;;;;;;;;;;;;;6186253;23;19920;-93
2022/12/30 16:21:30;;;;;;;;;;;;;;;;;;6188682;23;20399;-92
2022/12/30 16:23:56;;;;;;;;;;;;;;;;;;6140722;23;19916;-91
2022/12/30 16:29:13;;;;;;;;;;;;;;;;;;6165963;23;20253;-92
2022/12/30 16:57:39;;;;;;;;;;;;;;;;;;6193711;22;19932;-91
2022/12/30 17:00:05;;;;;;;;;;;;;;;;;;6114837;23;19999;-90
2022/12/30 17:02:31;;;;;;;;;;;;;;;;;;6117093;23;19974;-91
2022/12/30 17:04:57;;;;;;;;;;;;;;;;;;6115046;23;20321;-90
2022/12/30 17:07:23;;;;;;;;;;;;;;;;;;6167042;23;20038;-91
2022/12/30 17:12:33;;;;;;;;;;;;;;;;;;6167623;23;19963;-91
2022/12/30 17:14:59;;;;;;;;;;;;;;;;;;6167901;23;19990;-91
2022/12/30 17:17:25;;;;;;;;;;;;;;;;;;6168257;23;19920;-91
2022/12/30 17:19:51;;;;;;;;;;;;;;;;;;6165149;23;20265;-90
2022/12/30 17:22:17;;;;;;;;;;;;;;;;;;6168858;23;20393;-90
2022/12/30 17:24:59;;;;;;;;;;;;;;;;;;6120776;23;19923;-90
2022/12/30 17:27:24;;;;;;;;;;;;;;;;;;6120883;23;19916;-90
2022/12/30 17:29:50;;;;;;;;;;;;;;;;;;6117556;23;19994;-91
2022/12/30 17:32:22;;;;;;;;;;;;;;;;;;6144393;23;19916;-90
2022/12/30 17:37:17;;;;;;;;;;;;;;;;;;6173038;23;19924;-91
2022/12/30 17:42:34;;;;;;;;;;;;;;;;;;6194522;23;19951;-91
2022/12/30 17:45:21;;;;;;;;;;;;;;;;;;6157956;23;19920;-91
2022/12/30 17:50:51;;;;;;;;;;;;;;;;;;6166188;23;19927;-91
2022/12/30 17:53:28;;;;;;;;;;;;;;;;;;6169953;23;19927;-89
2022/12/30 17:56:03;;;;;;;;;;;;;;;;;;6146285;23;19967;-90
2022/12/30 17:58:33;;;;;;;;;;;;;;;;;;6167965;23;19916;-91
2022/12/30 18:01:14;;;;;;;;;;;;;;;;;;;;;
2022/12/30 18:03:41;;;;;;;;;;;;;;;;;;6193808;23;19920;-91
2022/12/30 18:06:22;;;;;;;;;;;;;;;;;;6190041;23;19947;-91
2022/12/30 18:09:03;;;;;;;;;;;;;;;;;;6184282;23;19970;-88
2022/12/30 18:11:35;;;;;;;;;;;;;;;;;;6145804;23;19921;-91
2022/12/30 18:14:09;;;;;;;;;;;;;;;;;;6144554;23;19928;-91
2022/12/30 18:19:30;;;;;;;;;;;;;;;;;;6156349;23;19927;-91
2022/12/30 18:22:02;;;;;;;;;;;;;;;;;;6140683;23;20293;-91
2022/12/30 18:24:28;;;;;;;;;;;;;;;;;;6146327;23;19916;-92
2022/12/30 18:27:09;;;;;;;;;;;;;;;;;;6143913;23;19927;-91
2022/12/30 19:13:11;;;;;;;;;;;;;;;;;;6180285;23;19925;-91
2022/12/30 20:11:31;;;;;;;;;;;;;;;;;;6173437;23;19935;-90
2022/12/30 20:13:57;;;;;;;;;;;;;;;;;;6123294;23;19916;-91
2022/12/30 20:16:31;;;;;;;;;;;;;;;;;;6127397;23;19963;-91
2022/12/30 20:19:14;;;;;;;;;;;;;;;;;;6148622;23;19967;-91
2022/12/30 20:21:43;;;;;;;;;;;;;;;;;;6127634;23;19996;-90
2022/12/30 20:24:12;;;;;;;;;;;;;;;;;;6125376;23;19920;-91
2022/12/30 20:52:49;;;;;;;;;;;;;;;;;;6181557;23;20766;-92
2022/12/30 20:55:15;;;;;;;;;;;;;;;;;;6146904;23;19947;-92
2022/12/30 20:57:41;;;;;;;;;;;;;;;;;;6121195;23;19927;-93
2022/12/30 21:00:07;;;;;;;;;;;;;;;;;;6167992;23;19920;-93
2022/12/30 21:02:33;;;;;;;;;;;;;;;;;;6120909;23;20003;-92
2022/12/30 21:04:59;;;;;;;;;;;;;;;;;;6168178;23;19975;-92
2022/12/30 21:07:25;;;;;;;;;;;;;;;;;;6116070;23;19916;-93
2022/12/30 21:09:50;;;;;;;;;;;;;;;;;;6168903;23;20353;-92
2022/12/30 21:12:16;;;;;;;;;;;;;;;;;;6171016;23;19927;-93
2022/12/30 21:14:42;;;;;;;;;;;;;;;;;;6169351;23;19948;-92
2022/12/30 21:17:08;;;;;;;;;;;;;;;;;;6116244;23;19987;-92
2022/12/30 21:19:34;;;;;;;;;;;;;;;;;;6142455;23;19969;-91
2022/12/30 21:22:00;;;;;;;;;;;;;;;;;;6169265;23;19975;-93
2022/12/30 21:24:26;;;;;;;;;;;;;;;;;;6147890;23;20314;-92
2022/12/30 21:26:52;;;;;;;;;;;;;;;;;;6118434;23;19975;-92
2022/12/30 21:29:18;;;;;;;;;;;;;;;;;;6120997;23;19972;-94
2022/12/30 21:31:50;;;;;;;;;;;;;;;;;;6118058;23;19995;-93
2022/12/30 22:48:42;;;;;;;;;;;;;;;;;;;;;
2022/12/30 22:56:53;;;;;;;;;;;;;;;;;;6193845;23;19930;-93
2022/12/30 22:59:19;;;;;;;;;;;;;;;;;;6205012;23;19955;-93
2022/12/30 23:01:48;;;;;;;;;;;;;;;;;;6204895;23;19927;-93
2022/12/30 23:04:22;;;;;;;;;;;;;;;;;;6204666;23;20348;-93
2022/12/30 23:06:50;;;;;;;;;;;;;;;;;;6204500;23;20680;-92
2022/12/30 23:09:28;;;;;;;;;;;;;;;;;;6205671;23;19946;-93
2022/12/30 23:12:00;;;;;;;;;;;;;;;;;;6228808;23;20605;-92
2022/12/30 23:17:16;;;;;;;;;;;;;;;;;;6205426;23;19920;-93
2022/12/30 23:19:54;;;;;;;;;;;;;;;;;;6203401;23;19927;-94
2022/12/30 23:25:08;;;;;;;;;;;;;;;;;;6229608;23;19923;-93
2022/12/30 23:27:37;;;;;;;;;;;;;;;;;;6181310;23;19927;-94
2022/12/30 23:30:03;;;;;;;;;;;;;;;;;;6178634;23;20240;-93
2022/12/30 23:39:12;;;;;;;;;;;;;;;;;;6044162;23;19922;-92
2022/12/30 23:41:55;;;;;;;;;;;;;;;;;;6040857;23;19928;-92
